createdAt,value
2019-02-18T00:00:40.054Z,79.34
2019-02-18T00:03:09.699Z,79.23
2019-02-18T00:05:39.254Z,80.00
2019-02-18T00:08:08.830Z,79.81
2019-02-18T00:10:38.437Z,79.74
2019-02-18T00:13:08.046Z,79.26
2019-02-18T00:15:37.614Z,78.93
2019-02-18T00:18:07.107Z,79.08
2019-02-18T00:20:36.518Z,80.32
2019-02-18T00:23:06.043Z,79.37
2019-02-18T00:25:35.446Z,78.75
2019-02-18T00:28:04.929Z,78.62
2019-02-18T00:30:34.455Z,78.84
2019-02-18T00:33:03.978Z,80.56
2019-02-18T00:35:33.580Z,81.03
2019-02-18T00:38:03.110Z,79.73
2019-02-18T00:40:32.654Z,79.82
2019-02-18T00:43:02.171Z,79.28
2019-02-18T00:45:31.618Z,79.66
2019-02-18T00:48:01.029Z,79.11
2019-02-18T00:50:30.529Z,79.81
2019-02-18T00:53:00.105Z,79.59
2019-02-18T00:55:29.516Z,79.74
2019-02-18T00:57:59.131Z,79.07
2019-02-18T01:00:28.839Z,79.13
2019-02-18T01:02:58.503Z,79.77
2019-02-18T01:05:27.915Z,80.88
2019-02-18T01:07:57.565Z,81.20
2019-02-18T01:10:26.972Z,80.71
2019-02-18T01:12:56.417Z,81.38
2019-02-18T01:15:25.992Z,81.04
2019-02-18T01:17:55.572Z,80.30
2019-02-18T01:20:25.141Z,80.53
2019-02-18T01:22:54.709Z,80.36
2019-02-18T01:25:24.339Z,81.46
2019-02-18T01:27:53.776Z,81.15
2019-02-18T01:30:23.515Z,80.18
2019-02-18T01:32:53.133Z,80.75
2019-02-18T01:35:22.725Z,80.28
2019-02-18T01:37:52.144Z,80.60
2019-02-18T01:40:22.063Z,80.20
2019-02-18T01:42:51.506Z,79.96
2019-02-18T01:45:20.998Z,80.79
2019-02-18T01:47:50.469Z,80.93
2019-02-18T01:50:20.190Z,80.86
2019-02-18T01:52:49.715Z,81.85
2019-02-18T01:55:19.310Z,82.90
2019-02-18T01:57:48.766Z,83.14
2019-02-18T02:00:18.265Z,81.83
2019-02-18T02:02:47.648Z,81.43
2019-02-18T02:05:17.372Z,81.34
2019-02-18T02:07:55.812Z,81.58
2019-02-18T02:10:18.286Z,80.72
2019-02-18T02:12:48.065Z,80.07
2019-02-18T02:15:26.711Z,81.04
2019-02-18T02:17:56.310Z,81.62
2019-02-18T02:20:25.752Z,82.38
2019-02-18T02:22:55.262Z,81.83
2019-02-18T02:25:24.697Z,81.28
2019-02-18T02:27:54.225Z,80.81
2019-02-18T02:30:23.964Z,80.60
2019-02-18T02:32:53.388Z,79.75
2019-02-18T02:35:22.945Z,80.38
2019-02-18T02:37:52.574Z,80.61
2019-02-18T02:40:22.059Z,80.47
2019-02-18T02:42:51.619Z,80.11
2019-02-18T02:45:21.149Z,80.02
2019-02-18T02:47:50.870Z,80.25
2019-02-18T02:50:20.470Z,79.72
2019-02-18T02:52:50.025Z,79.32
2019-02-18T02:55:19.838Z,79.11
2019-02-18T02:57:49.735Z,78.91
2019-02-18T03:00:19.264Z,78.99
2019-02-18T03:02:48.807Z,78.97
2019-02-18T03:05:18.229Z,79.57
2019-02-18T03:07:47.892Z,79.26
2019-02-18T03:10:18.862Z,78.72
2019-02-18T03:12:48.309Z,79.67
2019-02-18T03:15:17.931Z,79.68
2019-02-18T03:17:47.535Z,79.51
2019-02-18T03:20:17.135Z,80.63
2019-02-18T03:22:46.827Z,80.65
2019-02-18T03:25:26.918Z,80.54
2019-02-18T03:28:02.450Z,81.17
2019-02-18T03:30:35.130Z,81.88
2019-02-18T03:33:06.964Z,81.59
2019-02-18T03:35:36.521Z,81.73
2019-02-18T03:38:05.980Z,80.89
2019-02-18T03:40:35.729Z,82.53
2019-02-18T03:43:05.172Z,84.17
2019-02-18T03:45:34.992Z,84.31
2019-02-18T03:48:04.600Z,84.68
2019-02-18T03:50:34.245Z,84.49
2019-02-18T03:53:03.721Z,84.37
2019-02-18T03:55:33.231Z,84.43
2019-02-18T03:58:02.679Z,83.85
2019-02-18T04:00:32.286Z,83.19
2019-02-18T04:03:02.010Z,82.95
2019-02-18T04:05:31.757Z,83.44
2019-02-18T04:08:01.334Z,84.11
2019-02-18T04:10:31.211Z,84.38
2019-02-18T04:13:00.733Z,84.78
2019-02-18T04:15:30.176Z,85.70
2019-02-18T04:17:59.600Z,85.79
2019-02-18T04:20:29.355Z,86.16
2019-02-18T04:22:58.861Z,86.70
2019-02-18T04:25:28.443Z,86.76
2019-02-18T04:27:58.198Z,86.45
2019-02-18T04:30:27.673Z,86.18
2019-02-18T04:32:57.295Z,85.69
2019-02-18T04:35:26.869Z,85.20
2019-02-18T04:37:56.363Z,85.10
2019-02-18T04:40:25.802Z,85.15
2019-02-18T04:42:55.457Z,85.19
2019-02-18T04:45:25.275Z,85.12
2019-02-18T04:47:56.364Z,84.95
2019-02-18T04:50:25.851Z,85.03
2019-02-18T04:52:55.757Z,84.75
2019-02-18T04:55:25.199Z,85.03
2019-02-18T04:57:56.005Z,85.58
2019-02-18T05:00:25.635Z,86.26
2019-02-18T05:02:55.057Z,87.00
2019-02-18T05:05:24.656Z,86.86
2019-02-18T05:07:54.523Z,87.09
2019-02-18T05:10:24.097Z,86.91
2019-02-18T05:12:53.564Z,86.93
2019-02-18T05:15:23.185Z,86.35
2019-02-18T05:17:52.692Z,85.73
2019-02-18T05:20:23.229Z,85.55
2019-02-18T05:22:52.822Z,85.64
2019-02-18T05:25:22.494Z,85.16
2019-02-18T05:27:51.985Z,84.62
2019-02-18T05:30:21.532Z,84.18
2019-02-18T05:32:51.140Z,83.80
2019-02-18T05:35:20.634Z,83.51
2019-02-18T05:37:50.135Z,83.41
2019-02-18T05:40:19.626Z,82.96
2019-02-18T05:42:49.343Z,83.65
2019-02-18T05:45:19.172Z,84.16
2019-02-18T05:47:48.838Z,84.45
2019-02-18T05:50:18.242Z,85.04
2019-02-18T05:52:47.881Z,85.45
2019-02-18T05:55:17.564Z,85.46
2019-02-18T05:57:47.236Z,85.84
2019-02-18T06:00:16.941Z,86.14
2019-02-18T06:02:46.709Z,86.52
2019-02-18T06:05:16.126Z,86.19
2019-02-18T06:07:45.559Z,86.22
2019-02-18T06:10:16.998Z,86.40
2019-02-18T06:12:46.397Z,86.54
2019-02-18T06:15:15.890Z,86.69
2019-02-18T06:17:45.331Z,86.90
2019-02-18T06:20:14.942Z,86.98
2019-02-18T06:22:44.365Z,87.24
2019-02-18T06:25:13.912Z,87.27
2019-02-18T06:27:43.484Z,87.10
2019-02-18T06:30:13.088Z,86.90
2019-02-18T06:32:42.873Z,86.87
2019-02-18T06:35:12.352Z,86.62
2019-02-18T06:37:42.112Z,87.02
2019-02-18T06:40:11.722Z,87.39
2019-02-18T06:42:41.421Z,87.12
2019-02-18T06:45:31.218Z,87.10
2019-02-18T06:48:02.738Z,87.13
2019-02-18T06:50:32.368Z,86.43
2019-02-18T06:53:01.855Z,86.46
2019-02-18T06:55:31.563Z,86.78
2019-02-18T06:58:08.457Z,87.23
2019-02-18T07:00:45.672Z,87.36
2019-02-18T07:03:18.495Z,87.41
2019-02-18T07:05:55.764Z,87.11
2019-02-18T07:08:45.090Z,87.03
2019-02-18T07:11:16.135Z,87.02
2019-02-18T07:13:45.736Z,86.98
2019-02-18T07:16:15.302Z,86.81
2019-02-18T07:18:44.722Z,86.78
2019-02-18T07:21:14.249Z,86.72
2019-02-18T07:23:43.857Z,87.09
2019-02-18T07:26:13.255Z,87.01
2019-02-18T07:28:42.739Z,87.05
2019-02-18T07:31:12.469Z,86.50
2019-02-18T07:33:42.092Z,86.82
2019-02-18T07:36:11.584Z,87.21
2019-02-18T07:38:41.291Z,87.21
2019-02-18T07:41:10.842Z,86.87
2019-02-18T07:43:40.282Z,86.74
2019-02-18T07:46:09.815Z,86.28
2019-02-18T07:48:39.338Z,86.30
2019-02-18T07:51:09.128Z,85.77
2019-02-18T07:53:39.356Z,85.40
2019-02-18T07:56:08.941Z,85.48
2019-02-18T07:58:38.817Z,85.62
2019-02-18T08:01:08.488Z,85.48
2019-02-18T08:03:37.933Z,85.67
2019-02-18T08:06:07.606Z,85.49
2019-02-18T08:08:37.205Z,85.11
2019-02-18T08:11:06.627Z,84.92
2019-02-18T08:13:36.151Z,84.85
2019-02-18T08:16:06.433Z,85.28
2019-02-18T08:18:36.271Z,85.31
2019-02-18T08:21:05.757Z,85.21
2019-02-18T08:23:35.265Z,84.99
2019-02-18T08:26:06.335Z,84.33
2019-02-18T08:28:35.949Z,84.60
2019-02-18T08:31:05.611Z,85.09
2019-02-18T08:33:35.034Z,84.67
2019-02-18T08:36:04.626Z,84.40
2019-02-18T08:38:34.363Z,83.99
2019-02-18T08:41:04.169Z,83.63
2019-02-18T08:43:33.848Z,83.88
2019-02-18T08:46:03.599Z,84.17
2019-02-18T08:48:33.111Z,84.50
2019-02-18T08:51:02.628Z,84.32
2019-02-18T08:53:32.256Z,84.17
2019-02-18T08:56:01.908Z,84.88
2019-02-18T08:58:31.664Z,84.67
2019-02-18T09:01:02.921Z,85.04
2019-02-18T09:03:32.712Z,83.69
2019-02-18T09:06:02.372Z,83.64
2019-02-18T09:08:31.809Z,83.66
2019-02-18T09:11:01.314Z,84.08
2019-02-18T09:13:30.753Z,84.42
2019-02-18T09:16:00.716Z,84.07
2019-02-18T09:18:30.214Z,83.21
2019-02-18T09:20:59.937Z,82.69
2019-02-18T09:23:47.058Z,83.46
2019-02-18T09:26:17.563Z,83.70
2019-02-18T09:28:47.077Z,82.99
2019-02-18T09:31:18.184Z,83.03
2019-02-18T09:33:47.757Z,81.81
2019-02-18T09:36:17.458Z,82.02
2019-02-18T09:38:49.751Z,82.08
2019-02-18T09:41:19.458Z,81.54
2019-02-18T09:43:49.016Z,80.86
2019-02-18T09:46:18.717Z,80.22
2019-02-18T09:48:48.273Z,79.31
2019-02-18T09:51:17.977Z,78.79
2019-02-18T09:53:47.691Z,78.80
2019-02-18T09:56:17.307Z,78.26
2019-02-18T09:58:46.753Z,79.41
2019-02-18T10:01:16.260Z,79.16
2019-02-18T10:03:45.855Z,78.76
2019-02-18T10:06:15.702Z,80.20
2019-02-18T10:08:45.109Z,78.46
2019-02-18T10:11:14.632Z,77.80
2019-02-18T10:13:44.178Z,76.23
2019-02-18T10:16:13.645Z,74.00
2019-02-18T10:18:43.187Z,71.15
2019-02-18T10:21:12.746Z,69.54
2019-02-18T10:23:42.387Z,68.06
2019-02-18T10:26:11.992Z,68.35
2019-02-18T10:28:41.508Z,67.81
2019-02-18T10:31:11.133Z,66.00
2019-02-18T10:33:40.546Z,66.47
2019-02-18T10:36:10.220Z,66.95
2019-02-18T10:38:40.334Z,68.88
2019-02-18T10:41:09.881Z,67.15
2019-02-18T10:43:39.319Z,66.66
2019-02-18T10:46:08.972Z,65.57
2019-02-18T10:48:38.392Z,64.54
2019-02-18T10:51:07.849Z,64.63
2019-02-18T10:53:37.487Z,66.53
2019-02-18T10:56:07.487Z,64.29
2019-02-18T10:58:37.095Z,63.44
2019-02-18T11:01:06.902Z,61.80
2019-02-18T11:03:36.555Z,60.42
2019-02-18T11:06:06.201Z,60.53
2019-02-18T11:08:35.623Z,59.29
2019-02-18T11:11:05.235Z,59.20
2019-02-18T11:13:34.751Z,58.23
2019-02-18T11:16:04.535Z,59.04
2019-02-18T11:18:34.064Z,59.76
2019-02-18T11:21:03.586Z,61.10
2019-02-18T11:23:33.071Z,62.55
2019-02-18T11:26:02.974Z,59.66
2019-02-18T11:28:32.637Z,58.77
2019-02-18T11:31:02.315Z,58.51
2019-02-18T11:33:31.874Z,56.52
2019-02-18T11:36:01.723Z,58.14
2019-02-18T11:38:31.510Z,55.96
2019-02-18T11:41:01.173Z,57.17
2019-02-18T11:43:30.773Z,55.71
2019-02-18T11:46:00.237Z,57.73
2019-02-18T11:48:29.936Z,54.43
2019-02-18T11:50:59.484Z,54.49
2019-02-18T11:53:28.991Z,55.85
2019-02-18T11:55:58.562Z,55.37
2019-02-18T11:58:28.402Z,55.37
2019-02-18T12:00:58.009Z,55.76
2019-02-18T12:03:28.052Z,54.36
2019-02-18T12:05:57.473Z,52.86
2019-02-18T12:08:27.103Z,52.86
2019-02-18T12:10:56.949Z,54.02
2019-02-18T12:13:26.367Z,50.80
2019-02-18T12:15:56.096Z,52.62
2019-02-18T12:18:25.850Z,50.69
2019-02-18T12:20:55.377Z,53.77
2019-02-18T12:23:24.829Z,51.35
2019-02-18T12:25:54.647Z,51.73
2019-02-18T12:28:24.093Z,51.78
2019-02-18T12:30:53.564Z,52.24
2019-02-18T12:33:22.997Z,51.55
2019-02-18T12:35:52.496Z,48.77
2019-02-18T12:38:22.025Z,48.74
2019-02-18T12:40:51.550Z,48.77
2019-02-18T12:43:21.034Z,47.47
2019-02-18T12:45:50.649Z,49.82
2019-02-18T12:48:20.350Z,48.03
2019-02-18T12:50:50.094Z,48.11
2019-02-18T12:53:19.865Z,47.64
2019-02-18T12:55:49.532Z,47.48
2019-02-18T12:58:19.289Z,45.50
2019-02-18T13:00:48.840Z,45.35
2019-02-18T13:03:18.532Z,47.60
2019-02-18T13:05:48.213Z,48.06
2019-02-18T13:08:17.980Z,46.21
2019-02-18T13:10:47.647Z,47.73
2019-02-18T13:13:17.150Z,46.98
2019-02-18T13:18:15.378Z,46.66
2019-02-18T13:20:45.059Z,46.13
2019-02-18T13:23:14.770Z,43.44
2019-02-18T13:25:47.544Z,44.99
2019-02-18T13:28:15.858Z,45.76
2019-02-18T13:30:45.338Z,45.90
2019-02-18T13:33:14.942Z,45.89
2019-02-18T13:35:44.468Z,45.02
2019-02-18T13:38:13.890Z,45.69
2019-02-18T13:40:43.394Z,46.48
2019-02-18T13:43:12.967Z,48.03
2019-02-18T13:45:42.785Z,47.68
2019-02-18T13:48:12.620Z,45.15
2019-02-18T13:50:42.225Z,47.16
2019-02-18T13:53:11.734Z,49.85
2019-02-18T13:55:41.336Z,48.10
2019-02-18T13:58:10.965Z,48.48
2019-02-18T14:00:40.730Z,47.61
2019-02-18T14:03:10.151Z,47.82
2019-02-18T14:05:39.766Z,47.31
2019-02-18T14:08:10.783Z,47.54
2019-02-18T14:10:40.417Z,45.71
2019-02-18T14:13:10.932Z,45.53
2019-02-18T14:15:40.352Z,46.47
2019-02-18T14:18:09.779Z,47.92
2019-02-18T14:20:39.732Z,46.54
2019-02-18T14:23:09.394Z,46.34
2019-02-18T14:25:39.090Z,48.30
2019-02-18T14:28:08.744Z,48.94
2019-02-18T14:30:38.388Z,48.48
2019-02-18T14:33:07.833Z,48.58
2019-02-18T14:35:37.523Z,48.40
2019-02-18T14:38:07.222Z,49.70
2019-02-18T14:40:38.123Z,49.11
2019-02-18T14:43:08.160Z,49.88
2019-02-18T14:45:37.916Z,52.70
2019-02-18T14:48:07.611Z,52.70
2019-02-18T14:50:37.224Z,54.29
2019-02-18T14:53:06.920Z,54.57
2019-02-18T14:55:36.467Z,54.90
2019-02-18T14:58:06.204Z,55.78
2019-02-18T15:00:35.774Z,56.50
2019-02-18T15:03:05.664Z,57.21
2019-02-18T15:05:35.282Z,57.06
2019-02-18T15:08:04.987Z,57.65
2019-02-18T15:10:34.652Z,57.98
2019-02-18T15:13:04.142Z,58.56
2019-02-18T15:15:33.727Z,58.91
2019-02-18T15:18:03.604Z,59.13
2019-02-18T15:20:33.151Z,59.19
2019-02-18T15:23:02.638Z,59.85
2019-02-18T15:25:32.149Z,60.11
2019-02-18T15:28:01.573Z,60.37
2019-02-18T15:30:31.098Z,60.81
2019-02-18T15:33:01.178Z,61.28
2019-02-18T15:35:30.707Z,61.91
2019-02-18T15:38:00.286Z,61.70
2019-02-18T15:40:29.806Z,62.11
2019-02-18T15:42:59.384Z,62.28
2019-02-18T15:45:29.121Z,62.74
2019-02-18T15:48:01.741Z,62.73
2019-02-18T15:50:30.022Z,63.04
2019-02-18T15:52:59.575Z,63.33
2019-02-18T15:55:29.170Z,63.55
2019-02-18T15:57:58.699Z,63.98
2019-02-18T16:00:28.811Z,64.19
2019-02-18T16:02:58.576Z,64.57
2019-02-18T16:05:28.155Z,64.65
2019-02-18T16:07:57.581Z,64.67
2019-02-18T16:10:27.244Z,65.15
2019-02-18T16:12:56.699Z,65.49
2019-02-18T16:15:26.880Z,65.85
2019-02-18T16:17:56.949Z,66.34
2019-02-18T16:20:26.467Z,66.31
2019-02-18T16:22:56.129Z,66.29
2019-02-18T16:25:25.861Z,66.37
2019-02-18T16:27:55.315Z,66.81
2019-02-18T16:30:25.433Z,67.57
2019-02-18T16:32:55.000Z,68.37
2019-02-18T16:35:24.514Z,68.63
2019-02-18T16:37:54.042Z,68.84
2019-02-18T16:40:25.224Z,69.62
2019-02-18T16:42:59.383Z,69.37
2019-02-18T16:45:26.976Z,69.72
2019-02-18T16:47:56.584Z,69.85
2019-02-18T16:50:26.181Z,70.49
2019-02-18T16:52:55.621Z,70.61
2019-02-18T16:55:25.287Z,71.23
2019-02-18T16:57:55.153Z,71.34
2019-02-18T17:00:28.814Z,71.43
2019-02-18T17:02:58.505Z,71.44
2019-02-18T17:05:28.040Z,71.87
2019-02-18T17:07:57.640Z,72.11
2019-02-18T17:10:27.693Z,72.20
2019-02-18T17:12:57.209Z,72.41
2019-02-18T17:15:26.670Z,72.61
2019-02-18T17:17:56.385Z,71.89
2019-02-18T17:20:25.928Z,72.83
2019-02-18T17:22:56.240Z,73.19
2019-02-18T17:25:27.568Z,73.53
2019-02-18T17:27:57.135Z,73.92
2019-02-18T17:30:27.732Z,74.12
2019-02-18T17:32:57.484Z,74.19
2019-02-18T17:35:27.021Z,74.28
2019-02-18T17:37:56.618Z,74.54
2019-02-18T17:40:26.743Z,74.76
2019-02-18T17:42:56.266Z,75.00
2019-02-18T17:45:25.847Z,74.40
2019-02-18T17:47:55.370Z,74.81
2019-02-18T17:50:25.001Z,74.54
2019-02-18T17:52:54.479Z,76.27
2019-02-18T17:55:24.297Z,75.80
2019-02-18T17:57:53.834Z,74.13
2019-02-18T18:00:26.079Z,75.74
2019-02-18T18:02:55.567Z,75.45
2019-02-18T18:05:24.996Z,75.36
2019-02-18T18:07:54.435Z,74.54
2019-02-18T18:10:24.052Z,74.81
2019-02-18T18:12:53.694Z,74.60
2019-02-18T18:15:23.131Z,74.27
2019-02-18T18:17:52.802Z,74.22
2019-02-18T18:20:22.430Z,74.66
2019-02-18T18:22:52.200Z,74.48
2019-02-18T18:25:21.847Z,74.75
2019-02-18T18:27:51.368Z,74.47
2019-02-18T18:30:21.417Z,74.41
2019-02-18T18:32:51.099Z,73.74
2019-02-18T18:35:20.619Z,73.85
2019-02-18T18:37:50.274Z,74.06
2019-02-18T18:40:20.193Z,74.36
2019-02-18T18:42:49.792Z,74.28
2019-02-18T18:45:19.556Z,74.08
2019-02-18T18:47:49.244Z,74.92
2019-02-18T18:50:21.466Z,75.54
2019-02-18T18:52:51.110Z,74.87
2019-02-18T18:55:20.687Z,75.45
2019-02-18T19:00:31.338Z,75.86
2019-02-18T19:03:01.188Z,75.80
2019-02-18T19:05:30.952Z,75.67
2019-02-18T19:08:00.485Z,76.30
2019-02-18T19:10:30.262Z,76.25
2019-02-18T19:13:00.531Z,76.23
2019-02-18T19:15:30.544Z,75.18
2019-02-18T19:18:00.407Z,75.57
2019-02-18T19:20:29.903Z,79.95
2019-02-18T19:22:59.488Z,78.61
2019-02-18T19:25:29.225Z,77.51
2019-02-18T19:27:59.031Z,77.69
2019-02-18T19:30:33.326Z,79.14
2019-02-18T19:33:02.845Z,77.85
2019-02-18T19:35:32.380Z,77.10
2019-02-18T19:38:01.869Z,76.31
2019-02-18T19:40:32.239Z,76.29
2019-02-18T19:43:01.935Z,75.30
2019-02-18T19:45:31.605Z,74.87
2019-02-18T19:48:01.304Z,75.24
2019-02-18T19:50:31.041Z,75.50
2019-02-18T19:53:00.544Z,75.63
2019-02-18T19:55:29.996Z,75.21
2019-02-18T19:58:00.714Z,75.80
2019-02-18T20:00:30.742Z,75.73
2019-02-18T20:03:00.743Z,75.39
2019-02-18T20:05:30.243Z,75.04
2019-02-18T20:07:59.838Z,75.07
2019-02-18T20:10:29.573Z,74.89
2019-02-18T20:12:59.182Z,74.96
2019-02-18T20:15:28.615Z,75.05
2019-02-18T20:17:58.101Z,75.50
2019-02-18T20:20:27.588Z,76.47
2019-02-18T20:22:57.293Z,77.17
2019-02-18T20:25:27.002Z,77.49
2019-02-18T20:27:56.551Z,77.81
2019-02-18T20:30:26.361Z,77.69
2019-02-18T20:32:55.868Z,77.76
2019-02-18T20:35:25.495Z,76.77
2019-02-18T20:37:54.930Z,75.69
2019-02-18T20:40:24.994Z,75.69
2019-02-18T20:42:54.451Z,76.55
2019-02-18T20:45:23.977Z,77.87
2019-02-18T20:47:53.410Z,77.83
2019-02-18T20:50:22.988Z,77.42
2019-02-18T20:52:52.888Z,77.30
2019-02-18T20:55:23.390Z,77.14
2019-02-18T20:57:55.847Z,77.10
2019-02-18T21:00:32.684Z,77.16
2019-02-18T21:03:07.106Z,77.41
2019-02-18T21:05:43.414Z,77.71
2019-02-18T21:08:17.819Z,77.35
2019-02-18T21:10:54.844Z,77.04
2019-02-18T21:13:30.237Z,77.02
2019-02-18T21:16:06.936Z,76.56
2019-02-18T21:18:43.348Z,76.76
2019-02-18T21:21:18.101Z,76.76
2019-02-18T21:23:56.284Z,76.46
2019-02-18T21:26:38.016Z,76.88
2019-02-18T21:29:13.760Z,76.20
2019-02-18T21:31:51.522Z,77.59
2019-02-18T21:34:26.499Z,82.69
2019-02-18T21:37:03.427Z,82.63
2019-02-18T21:39:38.460Z,77.32
2019-02-18T21:42:20.283Z,79.27
2019-02-18T21:44:54.588Z,77.26
2019-02-18T21:47:29.279Z,80.59
2019-02-18T21:50:06.583Z,77.90
2019-02-18T21:52:48.524Z,77.29
2019-02-18T21:55:24.869Z,79.83
2019-02-18T21:58:00.248Z,79.06
2019-02-18T22:00:36.761Z,79.76
2019-02-18T22:03:14.784Z,80.45
2019-02-18T22:05:51.031Z,77.37
2019-02-18T22:08:28.771Z,76.80
2019-02-18T22:11:08.955Z,77.54
2019-02-18T22:13:43.075Z,76.61
2019-02-18T22:16:18.366Z,79.08
2019-02-18T22:18:51.108Z,80.42
2019-02-18T22:21:26.691Z,80.64
2019-02-18T22:23:59.951Z,81.09
2019-02-18T22:26:33.030Z,80.87
2019-02-18T22:29:07.342Z,78.67
2019-02-18T22:31:39.051Z,77.65
2019-02-18T22:34:11.275Z,78.76
2019-02-18T22:36:41.798Z,77.48
2019-02-18T22:39:13.400Z,77.37
2019-02-18T22:41:45.072Z,77.31
2019-02-18T22:44:15.680Z,77.17
2019-02-18T22:46:50.041Z,77.51
2019-02-18T22:49:22.214Z,76.84
2019-02-18T22:51:54.256Z,77.62
2019-02-18T22:54:28.446Z,77.50
2019-02-18T22:57:02.697Z,77.00
2019-02-18T22:59:33.861Z,78.78
2019-02-18T23:02:06.381Z,78.56
2019-02-18T23:04:39.145Z,78.26
2019-02-18T23:07:11.225Z,78.89
2019-02-18T23:09:43.518Z,79.05
2019-02-18T23:12:16.072Z,78.56
2019-02-18T23:14:50.427Z,78.21
2019-02-18T23:17:21.063Z,78.89
2019-02-18T23:19:54.249Z,78.70
2019-02-18T23:22:26.281Z,77.63
2019-02-18T23:25:01.154Z,77.24
2019-02-18T23:27:32.506Z,76.44
2019-02-18T23:30:04.449Z,76.08
2019-02-18T23:32:40.318Z,76.88
2019-02-18T23:35:13.211Z,76.36
2019-02-18T23:37:43.175Z,76.99
2019-02-18T23:40:13.336Z,77.02
2019-02-18T23:42:42.842Z,77.24
2019-02-18T23:45:12.563Z,77.52
2019-02-18T23:47:42.062Z,77.98
2019-02-18T23:50:11.691Z,77.49
2019-02-18T23:52:41.536Z,77.33
2019-02-18T23:55:11.232Z,76.37
2019-02-18T23:57:40.702Z,76.84
